Time;durP1;ratioP1;P1;durP2;ratioP2;P2;SDS_P1;SDS_P2;PMS_P1;PMS_P2;Temp;Humidity;BMP_temperature;BMP_pressure;BME280_temperature;BME280_humidity;BME280_pressure;Samples;Min_cycle;Max_cycle;Signal;HPM_P1;HPM_P2
2021/04/11 00:00:42;;;;;;;28.05;13.28;;;;;;;3.20;58.23;100345.56;1778672;80;21063;-61
2021/04/11 00:03:12;;;;;;;27.87;12.63;;;;;;;3.03;59.09;100343.39;1778723;80;20998;-61
2021/04/11 00:05:42;;;;;;;27.42;12.65;;;;;;;2.84;60.27;100350.44;1778730;79;20923;-60
2021/04/11 00:08:11;;;;;;;27.10;13.40;;;;;;;2.65;61.06;100353.08;1779425;80;21129;-61
2021/04/11 00:10:41;;;;;;;27.05;12.50;;;;;;;2.50;61.83;100352.80;1782113;80;22156;-61
2021/04/11 00:13:15;;;;;;;25.45;12.58;;;;;;;2.33;62.14;100354.94;1782260;80;21053;-61
2021/04/11 00:15:42;;;;;;;25.32;13.03;;;;;;;2.21;63.02;100347.94;1782150;80;21081;-61
2021/04/11 00:18:09;;;;;;;25.60;13.62;;;;;;;2.11;63.90;100355.86;1782035;80;21982;-61
2021/04/11 00:20:38;;;;;;;30.50;13.83;;;;;;;1.99;64.20;100351.30;1782192;80;20998;-60
2021/04/11 00:23:05;;;;;;;31.50;14.65;;;;;;;1.88;64.63;100353.51;1782196;80;22415;-60
2021/04/11 00:25:36;;;;;;;30.97;14.53;;;;;;;1.75;65.20;100358.36;1782056;80;20938;-60
2021/04/11 00:28:05;;;;;;;29.95;14.53;;;;;;;1.63;65.87;100356.52;1782292;80;20931;-60
2021/04/11 00:30:33;;;;;;;35.40;15.70;;;;;;;1.53;66.32;100357.65;1782145;80;21180;-60
2021/04/11 00:33:03;;;;;;;37.48;15.58;;;;;;;1.48;66.66;100354.00;1782173;80;20938;-61
2021/04/11 00:35:30;;;;;;;40.78;16.67;;;;;;;1.42;66.83;100358.48;1756054;80;22310;-60
2021/04/11 00:37:58;;;;;;;44.00;16.30;;;;;;;1.36;67.05;100347.25;1782082;80;20982;-60
2021/04/11 00:40:32;;;;;;;37.65;15.25;;;;;;;1.29;67.67;100356.83;1782119;80;21147;-61
2021/04/11 00:43:07;;;;;;;41.40;15.00;;;;;;;1.25;67.95;100352.13;1782205;80;21108;-61
2021/04/11 00:45:42;;;;;;;33.40;15.53;;;;;;;1.21;68.13;100359.06;1756032;80;21061;-60
2021/04/11 00:48:10;;;;;;;37.78;14.28;;;;;;;1.17;68.69;100358.70;1782335;80;22733;-61
2021/04/11 00:50:38;;;;;;;25.85;13.50;;;;;;;1.10;68.58;100359.37;1782124;80;21034;-61
2021/04/11 00:53:07;;;;;;;29.80;14.30;;;;;;;1.06;68.73;100364.13;1782173;80;20994;-61
2021/04/11 00:55:34;;;;;;;36.95;14.47;;;;;;;1.02;68.87;100361.07;1782165;80;20951;-61
2021/04/11 00:58:03;;;;;;;30.45;15.32;;;;;;;0.99;68.83;100366.41;1781781;80;21064;-61
2021/04/11 01:00:33;;;;;;;32.15;15.00;;;;;;;0.95;69.11;100361.17;1782083;80;21324;-61
2021/04/11 01:03:01;;;;;;;28.80;14.28;;;;;;;0.89;69.39;100365.34;1782139;80;21069;-61
2021/04/11 01:05:34;;;;;;;29.92;14.53;;;;;;;0.88;69.55;100369.09;1782178;79;21486;-61
2021/04/11 01:10:59;;;;;;;33.95;14.68;;;;;;;0.83;69.65;100372.49;1873641;76;22505;-60
2021/04/11 01:13:27;;;;;;;33.53;15.40;;;;;;;0.75;69.70;100376.06;1841818;78;26432;-62
2021/04/11 01:15:55;;;;;;;33.20;14.68;;;;;;;0.69;70.09;100374.28;1841640;77;21364;-61
2021/04/11 01:18:26;;;;;;;28.57;14.95;;;;;;;0.64;70.23;100379.84;1841515;77;20928;-62
2021/04/11 01:20:55;;;;;;;29.82;14.55;;;;;;;0.57;70.41;100379.14;1841538;78;20924;-62
2021/04/11 01:23:59;;;;;;;33.20;15.60;;;;;;;0.53;70.81;100377.95;1841614;78;20909;-61
2021/04/11 01:26:28;;;;;;;30.60;14.30;;;;;;;0.50;70.98;100381.12;1811334;78;21082;-62
2021/04/11 01:28:56;;;;;;;33.63;14.83;;;;;;;0.45;71.28;100377.45;1825540;78;21358;-62
2021/04/11 01:31:24;;;;;;;35.78;15.78;;;;;;;0.43;71.46;100378.21;1754343;79;21517;-62
2021/04/11 01:33:52;;;;;;;33.90;15.80;;;;;;;0.37;71.66;100371.84;1839107;78;21072;-62
2021/04/11 01:36:23;;;;;;;32.98;14.75;;;;;;;0.32;71.65;100379.28;1804353;79;20937;-62
2021/04/11 01:38:53;;;;;;;33.73;14.90;;;;;;;0.30;71.43;100373.28;1779572;79;21474;-62
2021/04/11 01:41:29;;;;;;;33.30;13.95;;;;;;;0.31;71.43;100378.16;1808566;79;21371;-62
2021/04/11 01:43:58;;;;;;;34.25;16.05;;;;;;;0.29;71.15;100376.21;1802291;79;20988;-61
2021/04/11 01:46:25;;;;;;;32.55;13.03;;;;;;;0.32;71.25;100377.94;1808494;79;20924;-61
2021/04/11 01:48:55;;;;;;;29.15;12.53;;;;;;;0.32;71.16;100381.16;1795202;78;21499;-61
2021/04/11 01:51:31;;;;;;;34.60;14.55;;;;;;;0.30;70.67;100377.86;1841597;78;20940;-62
2021/04/11 01:54:00;;;;;;;39.30;15.20;;;;;;;0.40;69.88;100373.27;1841608;77;21335;-62
2021/04/11 01:56:29;;;;;;;29.95;12.95;;;;;;;0.53;69.34;100377.95;1841440;78;21015;-63
2021/04/11 01:59:00;;;;;;;28.70;13.25;;;;;;;0.68;68.29;100383.44;1824285;78;20956;-62
2021/04/11 02:01:32;;;;;;;26.95;12.88;;;;;;;0.79;67.50;100375.89;1808529;78;20912;-62
2021/04/11 02:04:03;;;;;;;28.60;14.65;;;;;;;0.88;67.64;100375.86;1808585;79;21058;-62
2021/04/11 02:06:35;;;;;;;29.42;14.18;;;;;;;0.92;67.02;100377.04;1788170;79;22486;-62
2021/04/11 02:09:10;;;;;;;31.05;14.98;;;;;;;0.96;66.40;100374.98;1775765;80;21071;-62
2021/04/11 02:11:42;;;;;;;32.28;15.18;;;;;;;0.89;66.23;100382.91;1779823;80;20944;-61
2021/04/11 02:14:11;;;;;;;37.70;17.50;;;;;;;0.94;66.44;100380.34;1780775;79;20944;-61
2021/04/11 02:16:40;;;;;;;32.67;14.83;;;;;;;1.05;65.85;100375.48;1780799;80;21573;-62
2021/04/11 02:19:16;;;;;;;39.67;17.35;;;;;;;1.18;65.48;100379.28;1780757;80;21197;-61
2021/04/11 02:21:46;;;;;;;33.58;15.35;;;;;;;1.25;65.15;100380.00;1780271;80;20937;-60
2021/04/11 02:24:15;;;;;;;36.83;14.35;;;;;;;1.26;65.23;100384.34;1756198;80;21094;-62
2021/04/11 02:26:43;;;;;;;30.27;13.60;;;;;;;1.23;65.03;100383.47;1780222;80;20889;-61
2021/04/11 02:29:21;;;;;;;34.20;15.18;;;;;;;1.23;64.87;100391.58;1794365;78;21011;-61
2021/04/11 02:31:49;;;;;;;30.27;14.28;;;;;;;1.24;64.74;100389.70;1813938;79;21172;-60
2021/04/11 02:34:30;;;;;;;32.30;14.70;;;;;;;1.25;64.83;100398.93;1813866;78;20980;-61
2021/04/11 02:37:04;;;;;;;26.30;12.35;;;;;;;1.25;64.83;100397.58;1821999;78;20968;-60
2021/04/11 02:39:37;;;;;;;29.12;14.13;;;;;;;1.25;64.71;100399.46;1822029;78;20913;-60
2021/04/11 02:42:08;;;;;;;29.48;13.90;;;;;;;1.22;64.89;100400.75;1822015;78;20906;-60
2021/04/11 02:44:40;;;;;;;29.90;15.28;;;;;;;1.18;65.22;100404.98;1822061;77;20972;-60
2021/04/11 02:47:09;;;;;;;38.13;14.87;;;;;;;1.09;66.21;100413.16;1822040;78;20996;-60
2021/04/11 02:49:37;;;;;;;29.18;13.95;;;;;;;0.97;66.42;100417.72;1797270;78;21004;-60
2021/04/11 02:52:11;;;;;;;30.15;14.33;;;;;;;0.87;66.74;100425.04;1822016;78;21488;-60
2021/04/11 02:54:38;;;;;;;;;;;;;;;0.75;67.23;100426.87;1799526;78;20977;-60
2021/04/11 02:57:09;;;;;;;27.25;12.43;;;;;;;0.63;67.82;100427.36;1776206;77;22183;-60
2021/04/11 02:59:38;;;;;;;28.20;13.05;;;;;;;0.52;68.40;100426.82;1795685;77;21657;-60
2021/04/11 03:02:06;;;;;;;32.48;14.60;;;;;;;0.44;68.91;100428.48;1847131;77;20914;-60
2021/04/11 03:04:36;;;;;;;33.73;14.30;;;;;;;0.34;69.11;100429.02;1847066;77;21576;-60
2021/04/11 03:07:13;;;;;;;29.12;13.58;;;;;;;0.26;69.38;100432.03;1847092;77;21053;-60
2021/04/11 03:09:50;;;;;;;28.38;14.18;;;;;;;0.22;69.87;100435.70;1846902;77;21484;-60
2021/04/11 03:12:19;;;;;;;29.85;14.93;;;;;;;0.20;70.06;100438.34;1846590;77;20954;-60
2021/04/11 03:14:49;;;;;;;37.70;16.37;;;;;;;0.18;70.51;100443.14;1846839;77;21002;-60
2021/04/11 03:17:21;;;;;;;36.68;17.35;;;;;;;0.13;70.78;100436.23;1791256;77;21211;-60
2021/04/11 03:20:01;;;;;;;34.85;17.20;;;;;;;0.06;71.10;100440.89;1796703;79;21058;-60
2021/04/11 03:22:30;;;;;;;35.00;17.10;;;;;;;-0.02;71.29;100444.22;1783724;79;21388;-60
2021/04/11 03:24:58;;;;;;;37.55;16.12;;;;;;;-0.10;71.63;100445.86;1781455;80;20955;-60
2021/04/11 03:27:54;;;;;;;29.80;14.80;;;;;;;-0.16;71.88;100452.16;1781566;79;20928;-59
2021/04/11 03:30:27;;;;;;;30.37;15.28;;;;;;;-0.25;72.10;100452.66;1728340;80;20944;-60
2021/04/11 03:33:01;;;;;;;31.62;15.18;;;;;;;-0.33;72.60;100457.82;1809803;79;21043;-62
2021/04/11 03:35:31;;;;;;;37.63;15.58;;;;;;;-0.36;72.77;100455.56;1786485;79;21364;-61
2021/04/11 03:38:01;;;;;;;29.23;14.75;;;;;;;-0.35;72.87;100462.61;1813524;79;20987;-61
2021/04/11 03:40:33;;;;;;;34.30;15.05;;;;;;;-0.30;72.91;100470.87;1813513;79;20984;-61
2021/04/11 03:43:11;;;;;;;36.60;16.10;;;;;;;-0.22;72.47;100477.33;1813745;79;20893;-61
2021/04/11 03:45:40;;;;;;;40.48;18.07;;;;;;;-0.11;72.63;100476.59;1813624;79;20928;-61
2021/04/11 03:48:14;;;;;;;37.67;15.68;;;;;;;-0.01;72.91;100472.03;1784230;79;21451;-61
2021/04/11 03:50:50;;;;;;;35.15;15.18;;;;;;;0.07;72.86;100477.63;1769299;80;20911;-61
2021/04/11 03:53:23;;;;;;;35.52;15.48;;;;;;;0.11;72.33;100478.31;1777813;79;21584;-61
2021/04/11 03:56:02;;;;;;;27.52;13.68;;;;;;;0.20;72.21;100485.59;1799676;79;20923;-62
2021/04/11 03:58:34;;;;;;;30.10;14.45;;;;;;;0.29;71.95;100482.89;1799242;79;21084;-62
2021/04/11 04:01:10;;;;;;;38.30;16.15;;;;;;;0.36;71.52;100491.74;1804198;79;21654;-63
2021/04/11 04:03:38;;;;;;;31.68;14.87;;;;;;;0.47;71.22;100490.98;1800359;77;20993;-63
2021/04/11 04:06:10;;;;;;;29.25;13.90;;;;;;;0.61;70.82;100492.45;1808954;78;21149;-62
2021/04/11 04:08:39;;;;;;;32.98;14.87;;;;;;;0.71;70.44;100493.25;1801090;79;21509;-63
2021/04/11 04:11:38;;;;;;;31.50;14.25;;;;;;;0.83;69.71;100492.78;1804569;79;21006;-63
2021/04/11 04:14:43;;;;;;;33.13;14.20;;;;;;;0.98;69.27;100496.42;1803885;79;21552;-62
2021/04/11 04:17:52;;;;;;;29.52;13.65;;;;;;;1.12;69.42;100493.83;1801873;79;20942;-62
2021/04/11 04:20:39;;;;;;;37.98;14.68;;;;;;;1.23;69.58;100501.66;1804593;79;20910;-62
2021/04/11 04:23:19;;;;;;;31.37;14.50;;;;;;;1.32;69.69;100515.97;1803272;79;20957;-63
2021/04/11 04:26:10;;;;;;;29.72;14.35;;;;;;;1.39;69.16;100513.16;1801519;79;20966;-63
2021/04/11 04:28:54;;;;;;;31.23;14.23;;;;;;;1.50;67.57;100520.48;1800718;79;21247;-64
2021/04/11 04:31:37;;;;;;;30.85;12.93;;;;;;;1.65;66.62;100518.16;1813328;79;20943;-63
2021/04/11 04:34:21;;;;;;;27.48;14.03;;;;;;;1.82;66.07;100513.38;1813709;79;21023;-62
2021/04/11 04:36:55;;;;;;;;;;;;;;;1.98;65.69;100514.86;1815930;79;20979;-63
2021/04/11 04:39:44;;;;;;;31.05;12.20;;;;;;;2.15;65.06;100510.08;1813441;79;20291;-64
2021/04/11 04:42:37;;;;;;;28.32;13.98;;;;;;;2.38;63.62;100508.67;1889699;76;22725;-67
2021/04/11 04:45:20;;;;;;;29.48;14.40;;;;;;;2.48;63.54;100513.48;1790347;80;20929;-67
2021/04/11 04:48:28;;;;;;;32.63;13.32;;;;;;;2.63;63.38;100512.45;1822942;78;21229;-65
2021/04/11 04:51:03;;;;;;;29.85;12.65;;;;;;;2.78;63.33;100521.42;1784291;78;21035;-66
2021/04/11 04:54:01;;;;;;;26.62;13.93;;;;;;;2.91;63.35;100517.87;1792061;78;21010;-67
2021/04/11 04:56:39;;;;;;;30.02;12.65;;;;;;;3.06;63.23;100515.98;1790400;80;21062;-66
2021/04/11 04:59:19;;;;;;;28.07;13.88;;;;;;;3.20;63.37;100520.05;1786012;80;20935;-62
2021/04/11 05:01:58;;;;;;;30.12;13.43;;;;;;;3.33;62.91;100518.09;1790809;80;21395;-64
2021/04/11 05:04:29;;;;;;;34.27;13.48;;;;;;;3.45;62.17;100523.75;1790117;80;20995;-64
2021/04/11 05:07:03;;;;;;;25.77;12.47;;;;;;;3.57;62.06;100526.37;1789321;80;21037;-68
2021/04/11 05:09:48;;;;;;;34.23;12.60;;;;;;;3.68;61.90;100528.19;1785220;79;21178;-64
2021/04/11 05:12:46;;;;;;;35.52;13.72;;;;;;;3.81;61.44;100531.94;1792206;79;20958;-62
2021/04/11 05:15:19;;;;;;;38.48;13.25;;;;;;;3.97;60.73;100530.28;1785816;79;21566;-63
2021/04/11 05:17:58;;;;;;;29.42;13.83;;;;;;;4.15;60.26;100531.34;1796737;79;21136;-64
2021/04/11 05:20:31;;;;;;;32.30;14.07;;;;;;;4.30;59.35;100531.57;1792325;79;21183;-63
2021/04/11 05:23:19;;;;;;;31.85;12.80;;;;;;;4.48;59.07;100534.53;1793709;79;21135;-63
2021/04/11 05:26:29;;;;;;;23.30;12.30;;;;;;;4.63;57.81;100529.27;1756282;79;21662;-64
2021/04/11 05:29:25;;;;;;;23.05;10.98;;;;;;;4.84;56.22;100534.97;1796415;79;21495;-64
2021/04/11 05:31:55;;;;;;;20.60;10.48;;;;;;;5.04;55.09;100540.64;1771747;81;20940;-62
2021/04/11 05:34:25;;;;;;;23.90;11.20;;;;;;;5.22;54.95;100543.00;1771769;80;20936;-66
2021/04/11 05:37:04;;;;;;;26.57;10.90;;;;;;;5.38;54.66;100544.52;1741893;81;21482;-64
2021/04/11 05:40:13;;;;;;;23.47;10.70;;;;;;;5.51;53.41;100546.29;1750711;81;21159;-69
2021/04/11 05:42:59;;;;;;;23.45;11.48;;;;;;;5.65;52.18;100546.69;1771483;81;22216;-65
2021/04/11 05:45:57;;;;;;;21.80;10.93;;;;;;;5.79;52.69;100541.06;1771745;80;20960;-64
2021/04/11 05:48:50;;;;;;;24.70;11.50;;;;;;;6.05;51.30;100538.57;1771785;81;21471;-65
2021/04/11 05:51:22;;;;;;;40.05;18.42;;;;;;;6.05;51.30;100538.57;1771876;81;21075;-66
2021/04/11 05:53:57;;;;;;;30.00;15.60;;;;;;;6.19;51.21;100543.31;1771475;81;21007;-65
2021/04/11 05:56:29;;;;;;;47.40;19.62;;;;;;;6.45;51.14;100543.44;1771270;81;21214;-64
2021/04/11 05:59:00;;;;;;;22.77;12.82;;;;;;;6.45;51.14;100543.44;1771268;81;21495;-67
2021/04/11 06:01:47;;;;;;;29.10;13.15;;;;;;;6.60;50.55;100536.70;1741171;81;21027;-65
2021/04/11 06:04:20;;;;;;;23.60;11.45;;;;;;;6.82;50.21;100546.09;1768708;81;21515;-67
2021/04/11 06:07:11;;;;;;;21.02;10.58;;;;;;;6.82;50.21;100546.09;1767573;81;21567;-67
2021/04/11 06:09:48;;;;;;;26.02;11.35;;;;;;;6.92;49.92;100544.23;1771227;80;22268;-68
2021/04/11 06:12:33;;;;;;;19.37;10.25;;;;;;;7.04;49.53;100548.06;1771278;81;21070;-67
2021/04/11 06:15:12;;;;;;;22.87;12.13;;;;;;;7.13;48.73;100549.18;1770982;80;21082;-68
2021/04/11 06:17:44;;;;;;;20.62;11.70;;;;;;;7.22;48.94;100546.20;1783728;78;21016;-67
2021/04/11 06:20:13;;;;;;;22.07;11.10;;;;;;;7.35;48.63;100546.78;1788715;79;21051;-67
2021/04/11 06:23:12;;;;;;;25.97;11.90;;;;;;;7.44;48.36;100549.27;1771203;81;21371;-67
2021/04/11 06:25:47;;;;;;;21.62;10.95;;;;;;;7.53;48.67;100548.42;1798473;79;20980;-68
2021/04/11 06:28:50;;;;;;;23.92;12.23;;;;;;;7.70;48.68;100549.55;1772057;79;21446;-66
2021/04/11 06:31:34;;;;;;;24.52;11.60;;;;;;;7.82;48.17;100555.56;1802971;79;21056;-66
2021/04/11 06:34:19;;;;;;;20.05;10.78;;;;;;;7.95;47.95;100550.92;1797307;79;21555;-65
2021/04/11 06:36:48;;;;;;;28.42;12.03;;;;;;;8.11;48.43;100557.72;1771254;81;21504;-65
2021/04/11 06:39:25;;;;;;;22.13;11.00;;;;;;;8.28;48.30;100560.98;1752217;81;20949;-65
2021/04/11 06:42:47;;;;;;;23.40;10.58;;;;;;;8.44;48.03;100555.80;1770382;81;21465;-66
2021/04/11 06:45:36;;;;;;;21.75;10.75;;;;;;;8.57;47.30;100549.75;1769228;80;21061;-65
2021/04/11 06:48:43;;;;;;;15.30;9.03;;;;;;;8.78;47.29;100555.13;1769285;81;20958;-64
2021/04/11 06:51:52;;;;;;;17.07;9.48;;;;;;;8.95;46.43;100555.61;1684203;84;21402;-66
2021/04/11 06:54:48;;;;;;;18.20;9.08;;;;;;;9.17;45.73;100561.53;1693438;83;21196;-70
2021/04/11 06:57:38;;;;;;;20.02;9.70;;;;;;;9.39;45.65;100560.30;1790460;79;21155;-71
2021/04/11 07:00:39;;;;;;;17.12;9.05;;;;;;;9.61;44.28;100563.45;1785767;80;21592;-70
2021/04/11 07:03:44;;;;;;;14.83;8.40;;;;;;;9.75;44.44;100567.74;1787378;80;21057;-69
2021/04/11 07:06:44;;;;;;;15.25;8.78;;;;;;;9.92;42.75;100562.64;1785697;80;21383;-68
2021/04/11 07:09:45;;;;;;;15.75;8.00;;;;;;;10.08;42.56;100561.41;1787162;80;21457;-70
2021/04/11 07:12:41;;;;;;;19.10;8.35;;;;;;;10.30;41.89;100569.21;1785502;80;21082;-69
2021/04/11 07:15:39;;;;;;;15.80;8.40;;;;;;;10.46;41.24;100573.97;1786277;80;21551;-62
2021/04/11 07:18:35;;;;;;;15.13;7.45;;;;;;;10.63;41.53;100570.78;1785789;80;20892;-65
2021/04/11 07:21:18;;;;;;;16.55;9.00;;;;;;;10.85;40.18;100569.16;1787442;80;21209;-63
2021/04/11 07:24:26;;;;;;;14.95;8.58;;;;;;;11.05;39.93;100579.61;1785860;80;20944;-64
2021/04/11 07:27:35;;;;;;;14.70;7.83;;;;;;;11.19;40.33;100572.28;1787514;80;21520;-63
2021/04/11 07:30:45;;;;;;;15.70;6.85;;;;;;;11.32;38.15;100576.23;1785139;80;21483;-70
2021/04/11 07:33:29;;;;;;;12.70;7.67;;;;;;;11.40;38.74;100581.89;1787116;80;21061;-70
2021/04/11 07:36:40;;;;;;;12.95;6.95;;;;;;;11.56;38.65;100579.16;1744580;80;21362;-68
2021/04/11 07:39:47;;;;;;;13.68;7.30;;;;;;;11.87;37.24;100583.69;1695639;84;21231;-69
2021/04/11 07:43:06;;;;;;;12.30;6.70;;;;;;;12.62;35.88;100585.41;1872902;76;22805;-73
2021/04/11 07:46:11;;;;;;;10.25;6.03;;;;;;;13.01;34.56;100576.64;1841478;78;21030;-71
2021/04/11 07:49:15;;;;;;;13.55;6.72;;;;;;;13.50;33.05;100577.23;1841501;78;21329;-70
2021/04/11 07:52:11;;;;;;;16.25;7.53;;;;;;;13.93;32.92;100571.25;1830672;78;21509;-70
2021/04/11 07:54:55;;;;;;;12.58;7.40;;;;;;;14.40;32.13;100580.84;1841334;77;20940;-64
2021/04/11 07:58:11;;;;;;;11.55;5.80;;;;;;;14.85;32.15;100571.89;1841831;78;20932;-66
2021/04/11 08:01:11;;;;;;;7.37;4.37;;;;;;;15.13;29.60;100575.77;1819760;78;20976;-65
2021/04/11 08:04:02;;;;;;;9.98;5.12;;;;;;;15.17;26.24;100570.66;1808657;79;21364;-64
2021/04/11 08:07:13;;;;;;;12.90;4.90;;;;;;;15.07;26.71;100569.58;1790201;79;21494;-65
2021/04/11 08:10:10;;;;;;;12.58;7.12;;;;;;;15.09;27.70;100566.48;1776711;80;20944;-65
2021/04/11 08:13:17;;;;;;;10.03;4.35;;;;;;;15.34;28.12;100565.73;1776652;80;20972;-66
2021/04/11 08:16:04;;;;;;;9.40;4.53;;;;;;;15.43;24.32;100564.38;1776687;80;21114;-65
2021/04/11 08:19:14;;;;;;;28.47;5.70;;;;;;;15.46;25.91;100560.39;1796125;78;21186;-64
2021/04/11 08:22:00;;;;;;;12.20;5.55;;;;;;;15.84;26.27;100557.81;1789622;78;20960;-65
2021/04/11 08:24:57;;;;;;;9.45;4.37;;;;;;;16.25;25.08;100561.16;1807439;78;21004;-67
2021/04/11 08:27:53;;;;;;;9.43;5.40;;;;;;;16.20;25.22;100556.60;1806858;78;21174;-66
2021/04/11 08:30:51;;;;;;;8.60;5.40;;;;;;;16.14;25.54;100560.72;1806961;79;21020;-64
2021/04/11 08:33:33;;;;;;;10.15;5.10;;;;;;;16.22;25.37;100550.16;1806946;79;21530;-64
2021/04/11 08:36:36;;;;;;;9.73;5.12;;;;;;;16.38;25.83;100551.27;1806962;79;21070;-65
2021/04/11 08:39:32;;;;;;;7.60;5.28;;;;;;;16.67;24.91;100553.91;1806888;79;21003;-66
2021/04/11 08:42:18;;;;;;;9.70;6.00;;;;;;;16.87;25.43;100550.37;1810521;79;21498;-66
2021/04/11 08:45:03;;;;;;;14.63;5.30;;;;;;;17.01;24.65;100540.42;1812506;78;21106;-64
2021/04/11 08:47:50;;;;;;;7.05;4.70;;;;;;;17.16;24.72;100532.92;1812039;79;21194;-66
2021/04/11 08:50:22;;;;;;;10.93;4.90;;;;;;;17.45;23.43;100540.38;1812184;79;21011;-67
2021/04/11 08:53:10;;;;;;;9.43;5.47;;;;;;;17.42;23.23;100536.30;1811941;78;20929;-66
2021/04/11 08:56:09;;;;;;;13.72;5.97;;;;;;;17.29;23.53;100533.24;1811699;79;21015;-64
2021/04/11 08:59:02;;;;;;;11.10;5.37;;;;;;;17.27;23.98;100536.93;1809490;79;21549;-66
2021/04/11 09:01:54;;;;;;;11.25;5.67;;;;;;;17.39;23.39;100533.39;1811971;79;21188;-68
2021/04/11 09:04:42;;;;;;;8.90;5.00;;;;;;;17.54;24.39;100531.98;1811163;79;20940;-64
2021/04/11 09:07:44;;;;;;;7.45;5.37;;;;;;;17.84;23.60;100530.78;1811522;79;20995;-69
2021/04/11 09:10:46;;;;;;;10.75;5.60;;;;;;;17.90;23.12;100525.83;1811477;79;21177;-71
2021/04/11 09:13:20;;;;;;;9.85;5.47;;;;;;;17.98;22.94;100532.66;1811802;79;21522;-70
2021/04/11 09:15:56;;;;;;;17.57;11.08;;;;;;;18.03;23.93;100519.14;1811562;77;21369;-67
2021/04/11 09:18:58;;;;;;;9.90;5.37;;;;;;;18.23;25.00;100518.86;1794790;77;21062;-67
2021/04/11 09:22:04;;;;;;;;;;;;;;;18.37;22.72;100506.84;1810959;79;20976;-68
2021/04/11 09:24:42;;;;;;;9.20;5.87;;;;;;;18.52;21.31;100513.67;1781674;79;20146;-67
2021/04/11 09:27:50;;;;;;;11.20;6.55;;;;;;;18.08;21.62;100516.95;1781690;80;21474;-68
2021/04/11 09:30:40;;;;;;;12.55;6.12;;;;;;;17.75;23.32;100517.55;1781736;80;21199;-68
2021/04/11 09:33:48;;;;;;;28.05;16.75;;;;;;;17.77;23.19;100513.28;1781548;80;21016;-67
2021/04/11 09:36:57;;;;;;;8.18;5.55;;;;;;;18.05;22.72;100519.61;1770010;79;20996;-68
2021/04/11 09:39:57;;;;;;;8.45;5.42;;;;;;;18.46;22.36;100511.73;1788148;79;21169;-68
2021/04/11 09:42:53;;;;;;;10.28;6.03;;;;;;;18.54;21.40;100512.17;1811832;79;20988;-67
2021/04/11 09:46:10;;;;;;;9.50;5.58;;;;;;;18.41;20.63;100505.81;1811852;79;21189;-67
2021/04/11 09:49:11;;;;;;;9.05;5.95;;;;;;;18.16;21.41;100509.69;1745603;79;21027;-67
2021/04/11 09:52:25;;;;;;;17.42;7.22;;;;;;;18.08;22.24;100502.25;1786322;80;21497;-68
2021/04/11 09:55:14;;;;;;;13.83;7.37;;;;;;;18.13;23.63;100502.03;1786402;79;20965;-67
2021/04/11 09:58:05;;;;;;;12.00;6.67;;;;;;;18.33;21.79;100494.79;1809946;79;20932;-66
2021/04/11 10:00:55;;;;;;;11.15;7.45;;;;;;;18.32;22.86;100499.54;1813657;79;21191;-66
2021/04/11 10:03:47;;;;;;;11.25;6.75;;;;;;;18.41;23.35;100496.66;1793803;79;20940;-66
2021/04/11 10:06:35;;;;;;;;;;;;;;;18.74;24.35;100494.61;1816323;77;20943;-66
2021/04/11 10:09:27;;;;;;;14.73;7.00;;;;;;;19.06;22.23;100483.70;1813783;78;20145;-65
2021/04/11 10:12:23;;;;;;;13.80;6.97;;;;;;;19.36;23.18;100487.80;1813688;78;21011;-65
2021/04/11 10:15:34;;;;;;;14.65;7.45;;;;;;;19.35;21.31;100482.58;1794615;79;21160;-66
2021/04/11 10:18:33;;;;;;;13.15;6.87;;;;;;;19.39;22.81;100482.91;1813586;79;20900;-65
2021/04/11 10:21:41;;;;;;;11.48;6.45;;;;;;;19.60;21.88;100481.37;1813641;78;20888;-65
2021/04/11 10:24:43;;;;;;;10.45;6.15;;;;;;;19.40;20.53;100482.33;1813744;79;21518;-65
2021/04/11 10:27:21;;;;;;;11.73;6.35;;;;;;;19.07;21.70;100483.31;1813764;78;20924;-66
2021/04/11 10:29:49;;;;;;;14.35;6.60;;;;;;;19.02;23.00;100478.02;1813677;79;22161;-67
2021/04/11 10:32:48;;;;;;;13.62;8.33;;;;;;;19.30;22.93;100471.10;1813654;79;21552;-68
2021/04/11 10:35:44;;;;;;;11.68;7.75;;;;;;;19.47;20.61;100476.97;1809033;79;21026;-66
2021/04/11 10:38:21;;;;;;;15.85;7.33;;;;;;;19.35;20.74;100475.61;1813610;79;20881;-66
2021/04/11 10:41:31;;;;;;;12.50;7.25;;;;;;;19.34;21.42;100478.17;1813592;78;21078;-66
2021/04/11 10:44:35;;;;;;;11.50;6.87;;;;;;;19.42;22.51;100468.87;1813715;79;21557;-66
2021/04/11 10:47:23;;;;;;;22.25;7.50;;;;;;;19.36;20.12;100465.52;1813653;78;21074;-66
2021/04/11 10:50:02;;;;;;;15.00;7.33;;;;;;;19.26;21.15;100466.59;1813706;79;21553;-66
2021/04/11 10:53:12;;;;;;;30.02;18.32;;;;;;;19.47;20.85;100460.27;1813650;78;20925;-66
2021/04/11 10:56:06;;;;;;;13.93;8.55;;;;;;;19.75;20.87;100460.28;1813461;77;21028;-66
2021/04/11 10:58:42;;;;;;;12.80;7.78;;;;;;;20.03;20.66;100450.50;1811329;79;21474;-67
2021/04/11 11:01:31;;;;;;;15.13;7.60;;;;;;;20.25;20.24;100454.63;1813249;79;20956;-67
2021/04/11 11:04:24;;;;;;;14.15;7.40;;;;;;;20.30;20.32;100457.16;1813590;79;21109;-67
2021/04/11 11:07:14;;;;;;;11.33;6.80;;;;;;;20.25;18.84;100451.27;1779800;77;21088;-66
2021/04/11 11:09:53;;;;;;;11.73;6.90;;;;;;;19.91;20.83;100449.98;1809483;77;20916;-67
2021/04/11 11:12:33;;;;;;;17.95;7.40;;;;;;;19.89;21.93;100447.33;1757839;79;21371;-66
2021/04/11 11:15:41;;;;;;;12.13;7.37;;;;;;;20.10;23.12;100445.92;1813513;79;20947;-66
2021/04/11 11:18:47;;;;;;;16.57;7.47;;;;;;;20.41;21.25;100443.74;1813617;79;20892;-66
2021/04/11 11:21:51;;;;;;;12.25;6.87;;;;;;;20.51;21.51;100441.00;1811891;79;21499;-66
2021/04/11 11:24:57;;;;;;;12.88;7.75;;;;;;;20.47;20.95;100433.13;1811937;79;20928;-67
2021/04/11 11:27:47;;;;;;;49.33;29.00;;;;;;;20.17;19.25;100434.16;1755804;80;21204;-66
2021/04/11 11:30:36;;;;;;;24.50;12.73;;;;;;;19.70;19.71;100432.09;1781530;80;21058;-66
2021/04/11 11:33:48;;;;;;;17.15;10.98;;;;;;;19.54;20.13;100431.84;1755507;80;21059;-66
2021/04/11 11:36:45;;;;;;;31.97;17.73;;;;;;;19.63;20.10;100424.96;1781539;80;21578;-66
2021/04/11 11:39:33;;;;;;;43.78;25.50;;;;;;;19.66;19.92;100433.97;1781229;79;21511;-67
2021/04/11 11:42:31;;;;;;;33.48;24.57;;;;;;;19.81;21.11;100417.65;1782026;80;22047;-67
2021/04/11 11:45:10;;;;;;;18.60;12.82;;;;;;;20.04;19.59;100413.91;1808564;77;21015;-67
2021/04/11 11:48:20;;;;;;;18.60;14.43;;;;;;;20.01;19.75;100406.27;1815653;78;21038;-67
2021/04/11 11:51:09;;;;;;;18.52;11.68;;;;;;;19.77;18.75;100410.59;1815907;78;21185;-67
2021/04/11 11:54:19;;;;;;;15.23;8.18;;;;;;;19.47;19.86;100401.80;1815971;79;21098;-67
2021/04/11 11:57:23;;;;;;;12.53;7.25;;;;;;;19.60;21.09;100395.03;1815960;79;21183;-67
2021/04/11 12:00:05;;;;;;;15.88;9.60;;;;;;;19.94;22.69;100401.09;1815302;79;21160;-68
2021/04/11 12:02:45;;;;;;;11.18;7.08;;;;;;;20.40;19.51;100393.91;1791510;79;21474;-67
2021/04/11 12:05:20;;;;;;;32.98;28.60;;;;;;;20.43;20.87;100395.39;1816403;77;20939;-68
2021/04/11 12:08:19;;;;;;;14.23;8.00;;;;;;;20.42;19.45;100390.98;1816391;79;20920;-67
2021/04/11 12:10:59;;;;;;;13.70;7.15;;;;;;;20.50;20.65;100389.17;1816368;78;20991;-67
2021/04/11 12:13:48;;;;;;;13.98;6.72;;;;;;;20.77;20.54;100387.42;1816399;79;20979;-68
2021/04/11 12:16:32;;;;;;;9.05;5.60;;;;;;;21.00;20.85;100387.50;1816446;79;21161;-67
2021/04/11 12:19:08;;;;;;;8.75;5.78;;;;;;;21.17;18.29;100383.48;1808868;79;21482;-67
2021/04/11 12:22:03;;;;;;;8.83;6.75;;;;;;;21.18;18.48;100380.33;1815862;77;21577;-67
2021/04/11 12:24:50;;;;;;;14.33;7.70;;;;;;;21.07;17.31;100380.69;1784325;79;21161;-67
2021/04/11 12:27:32;;;;;;;11.75;6.85;;;;;;;20.92;17.02;100386.53;1815074;77;20982;-67
2021/04/11 12:30:01;;;;;;;10.40;6.65;;;;;;;20.69;17.55;100380.86;1827278;77;20979;-67
2021/04/11 12:32:47;;;;;;;13.70;5.95;;;;;;;20.81;17.20;100377.12;1814011;79;21606;-67
2021/04/11 12:35:45;;;;;;;8.58;5.62;;;;;;;20.89;19.00;100372.50;1813662;79;21228;-68
2021/04/11 12:38:42;;;;;;;7.50;5.15;;;;;;;21.07;17.18;100373.70;1814006;79;21358;-68
2021/04/11 12:41:41;;;;;;;369.70;185.48;;;;;;;21.07;16.95;100373.70;1814849;77;21122;-67